createdAt,value
2022-11-13T00:02:15.285Z,16.30
2022-11-13T00:04:43.105Z,27.80
2022-11-13T00:07:11.086Z,22.20
2022-11-13T00:09:38.919Z,25.30
2022-11-13T00:12:06.786Z,21.90
2022-11-13T00:14:34.568Z,22.50
2022-11-13T00:17:02.376Z,20.90
2022-11-13T00:19:30.196Z,17.30
2022-11-13T00:21:59.741Z,16.80
2022-11-13T00:24:27.810Z,18.40
2022-11-13T00:26:55.575Z,17.10
2022-11-13T00:29:23.363Z,16.90
2022-11-13T00:31:51.162Z,16.10
2022-11-13T00:34:45.839Z,16.10
2022-11-13T00:37:06.813Z,17.00
2022-11-13T00:39:34.539Z,16.00
2022-11-13T00:42:02.291Z,17.00
2022-11-13T00:44:30.209Z,17.30
2022-11-13T00:46:58.026Z,17.00
2022-11-13T00:49:25.897Z,17.60
2022-11-13T00:51:53.664Z,16.30
2022-11-13T00:54:21.575Z,16.70
2022-11-13T00:56:49.494Z,16.40
2022-11-13T00:59:17.295Z,19.90
2022-11-13T01:01:45.143Z,15.20
2022-11-13T01:04:13.043Z,19.50
2022-11-13T01:06:41.015Z,16.80
2022-11-13T01:09:09.394Z,17.50
2022-11-13T01:11:37.259Z,16.20
2022-11-13T01:14:05.131Z,16.80
2022-11-13T01:16:32.996Z,18.60
2022-11-13T01:19:00.861Z,17.00
2022-11-13T01:21:28.853Z,15.70
2022-11-13T01:23:56.744Z,16.50
2022-11-13T01:26:28.097Z,17.40
2022-11-13T01:28:57.449Z,18.20
2022-11-13T01:31:28.657Z,16.90
2022-11-13T01:33:56.870Z,18.00
2022-11-13T01:36:28.068Z,18.20
2022-11-13T01:38:56.552Z,13.40
2022-11-13T01:41:33.303Z,15.10
2022-11-13T01:46:42.740Z,15.60
2022-11-13T01:49:16.139Z,16.70
2022-11-13T01:51:57.611Z,18.70
2022-11-13T01:54:33.714Z,14.30
2022-11-13T01:57:03.746Z,16.00
2022-11-13T01:59:41.942Z,14.70
2022-11-13T02:02:09.827Z,15.00
2022-11-13T02:04:37.916Z,12.80
2022-11-13T02:07:12.695Z,12.70
2022-11-13T02:09:46.476Z,17.00
2022-11-13T02:12:18.635Z,15.10
2022-11-13T02:17:45.633Z,17.90
2022-11-13T02:20:15.751Z,18.50
2022-11-13T02:23:08.225Z,24.30
2022-11-13T02:25:38.962Z,26.20
2022-11-13T02:28:06.826Z,38.90
2022-11-13T02:30:36.405Z,44.90
2022-11-13T02:33:22.024Z,41.30
2022-11-13T02:35:50.364Z,42.40
2022-11-13T02:38:18.264Z,44.20
2022-11-13T02:40:46.481Z,43.10
2022-11-13T02:43:14.348Z,45.30
2022-11-13T02:45:42.227Z,39.90
2022-11-13T02:48:10.133Z,41.00
2022-11-13T02:50:38.326Z,39.90
2022-11-13T02:53:06.798Z,42.40
2022-11-13T02:55:34.627Z,43.00
2022-11-13T02:58:02.914Z,39.10
2022-11-13T03:00:46.298Z,39.20
2022-11-13T03:03:14.398Z,39.80
2022-11-13T03:05:42.958Z,41.30
2022-11-13T03:08:12.010Z,38.50
2022-11-13T03:10:40.857Z,41.70
2022-11-13T03:13:08.764Z,38.90
2022-11-13T03:15:36.692Z,43.40
2022-11-13T03:18:06.045Z,37.70
2022-11-13T03:20:36.325Z,37.00
2022-11-13T03:23:05.217Z,38.00
2022-11-13T03:25:34.204Z,34.50
2022-11-13T03:28:01.976Z,30.00
2022-11-13T03:30:29.826Z,29.10
2022-11-13T03:32:58.166Z,32.40
2022-11-13T03:35:29.764Z,34.90
2022-11-13T03:37:58.656Z,29.70
2022-11-13T03:40:26.473Z,27.10
2022-11-13T03:42:54.250Z,32.80
2022-11-13T03:45:22.041Z,33.20
2022-11-13T03:47:49.939Z,33.90
2022-11-13T03:50:17.910Z,34.90
2022-11-13T03:52:45.723Z,32.40
2022-11-13T03:55:13.510Z,36.10
2022-11-13T03:57:41.244Z,34.50
2022-11-13T04:00:09.763Z,33.60
2022-11-13T04:02:37.587Z,32.30
2022-11-13T04:05:06.090Z,38.70
2022-11-13T04:07:33.985Z,38.90
2022-11-13T04:10:01.878Z,36.90
2022-11-13T04:12:29.697Z,36.00
2022-11-13T04:14:57.483Z,47.50
2022-11-13T04:17:25.314Z,47.60
2022-11-13T04:19:53.064Z,39.10
2022-11-13T04:22:20.806Z,42.50
2022-11-13T04:24:48.763Z,47.30
2022-11-13T04:27:16.537Z,40.50
2022-11-13T04:29:44.345Z,48.80
2022-11-13T04:32:12.083Z,40.40
2022-11-13T04:34:39.840Z,53.40
2022-11-13T04:37:08.001Z,49.80
2022-11-13T04:39:35.797Z,51.10
2022-11-13T04:42:22.432Z,51.10
2022-11-13T04:44:50.278Z,48.60
2022-11-13T04:47:18.035Z,49.10
2022-11-13T04:49:45.802Z,52.40
2022-11-13T04:52:13.987Z,54.20
2022-11-13T04:54:41.771Z,56.20
2022-11-13T04:57:09.633Z,53.10
2022-11-13T04:59:37.498Z,51.00
2022-11-13T05:02:05.470Z,62.40
2022-11-13T05:04:33.413Z,59.00
2022-11-13T05:07:01.241Z,63.30
2022-11-13T05:09:29.179Z,58.90
2022-11-13T05:11:56.961Z,62.10
2022-11-13T05:14:24.760Z,58.20
2022-11-13T05:16:52.694Z,59.80
2022-11-13T05:19:20.506Z,58.70
2022-11-13T05:21:48.210Z,57.20
2022-11-13T05:24:16.051Z,56.90
2022-11-13T05:26:43.797Z,61.10
2022-11-13T05:29:11.573Z,62.90
2022-11-13T05:31:39.635Z,58.60
2022-11-13T05:34:08.231Z,54.40
2022-11-13T05:36:36.639Z,57.50
2022-11-13T05:39:04.887Z,57.60
2022-11-13T05:41:33.085Z,61.30
2022-11-13T05:44:00.971Z,62.10
2022-11-13T05:46:30.067Z,61.10
2022-11-13T05:49:00.820Z,57.20
2022-11-13T05:51:34.440Z,54.50
2022-11-13T05:54:02.772Z,62.20
2022-11-13T05:56:33.564Z,62.30
2022-11-13T05:59:02.883Z,66.60
2022-11-13T06:01:36.663Z,57.70
2022-11-13T06:04:06.075Z,50.60
2022-11-13T06:06:34.490Z,52.50
2022-11-13T06:09:04.948Z,49.40
2022-11-13T06:11:33.406Z,54.60
2022-11-13T06:14:01.461Z,51.60
2022-11-13T06:16:33.751Z,45.20
2022-11-13T06:19:05.638Z,50.30
2022-11-13T06:21:35.624Z,52.80
2022-11-13T06:24:04.362Z,47.60
2022-11-13T06:26:34.361Z,55.00
2022-11-13T06:29:04.986Z,58.30
2022-11-13T06:31:35.264Z,58.30
2022-11-13T06:34:04.480Z,53.20
2022-11-13T06:36:35.192Z,94.40
2022-11-13T06:39:07.012Z,86.20
2022-11-13T06:41:34.975Z,94.30
2022-11-13T06:44:03.556Z,104.70
2022-11-13T06:46:32.115Z,88.40
2022-11-13T06:48:59.889Z,72.50
2022-11-13T06:51:30.162Z,77.40
2022-11-13T06:53:58.772Z,97.80
2022-11-13T06:56:26.882Z,93.80
2022-11-13T06:58:56.403Z,82.80
2022-11-13T07:01:26.265Z,84.90
2022-11-13T07:03:54.124Z,83.60
2022-11-13T07:06:24.008Z,74.10
2022-11-13T07:08:52.894Z,63.00
2022-11-13T07:11:23.772Z,64.10
2022-11-13T07:16:19.974Z,64.70
2022-11-13T07:18:53.116Z,58.70
2022-11-13T07:21:22.106Z,54.40
2022-11-13T07:23:50.890Z,59.70
2022-11-13T07:26:19.220Z,84.50
2022-11-13T07:28:48.305Z,62.40
2022-11-13T07:31:17.812Z,58.20
2022-11-13T07:33:48.920Z,49.20
2022-11-13T07:36:17.032Z,52.90
2022-11-13T07:38:44.816Z,51.60
2022-11-13T07:41:12.650Z,53.30
2022-11-13T07:43:40.517Z,49.20
2022-11-13T07:46:08.353Z,40.10
2022-11-13T07:48:36.211Z,41.90
2022-11-13T07:51:04.295Z,41.80
2022-11-13T07:53:32.503Z,35.50
2022-11-13T07:56:02.381Z,48.90
2022-11-13T07:58:31.443Z,55.20
2022-11-13T08:01:07.065Z,58.60
2022-11-13T08:03:35.352Z,58.50
2022-11-13T08:06:05.423Z,51.90
2022-11-13T08:08:34.045Z,54.20
2022-11-13T08:11:09.538Z,50.30
2022-11-13T08:13:38.223Z,55.10
2022-11-13T08:16:06.364Z,56.70
2022-11-13T08:18:34.241Z,48.70
2022-11-13T08:21:03.882Z,48.70
2022-11-13T08:23:32.420Z,51.30
2022-11-13T08:26:04.651Z,53.60
2022-11-13T08:28:33.016Z,46.80
2022-11-13T08:31:01.308Z,53.20
2022-11-13T08:33:29.782Z,52.90
2022-11-13T08:35:59.949Z,43.50
2022-11-13T08:38:28.182Z,46.20
2022-11-13T08:40:58.635Z,42.80
2022-11-13T08:43:27.909Z,39.10
2022-11-13T08:45:55.972Z,39.00
2022-11-13T08:48:24.558Z,32.90
2022-11-13T08:50:53.290Z,38.70
2022-11-13T08:53:22.553Z,41.00
2022-11-13T08:55:50.520Z,47.50
2022-11-13T08:58:18.567Z,43.30
2022-11-13T09:00:46.560Z,43.90
2022-11-13T09:03:14.440Z,40.10
2022-11-13T09:05:42.286Z,39.00
2022-11-13T09:08:10.992Z,38.80
2022-11-13T09:10:38.855Z,39.90
2022-11-13T09:13:09.025Z,38.50
2022-11-13T09:15:38.529Z,42.80
2022-11-13T09:18:07.271Z,49.80
2022-11-13T09:20:35.284Z,46.50
2022-11-13T09:23:05.619Z,47.20
2022-11-13T09:25:37.803Z,45.60
2022-11-13T09:28:07.081Z,40.00
2022-11-13T09:30:34.998Z,42.30
2022-11-13T09:33:02.867Z,39.10
2022-11-13T09:35:35.106Z,42.60
2022-11-13T09:38:11.168Z,39.70
2022-11-13T09:41:01.650Z,44.60
2022-11-13T09:43:38.821Z,39.90
2022-11-13T09:46:17.853Z,42.30
2022-11-13T09:48:55.964Z,45.70
2022-11-13T09:51:31.446Z,44.60
2022-11-13T09:54:05.461Z,40.60
2022-11-13T09:56:42.799Z,38.10
2022-11-13T09:59:23.685Z,43.30
2022-11-13T10:02:02.250Z,29.10
2022-11-13T10:04:48.503Z,38.10
2022-11-13T10:07:31.637Z,35.90
2022-11-13T10:10:24.745Z,34.00
2022-11-13T10:12:56.637Z,52.20
2022-11-13T10:15:26.751Z,53.90
2022-11-13T10:18:07.908Z,48.30
2022-11-13T10:20:51.567Z,50.00
2022-11-13T10:23:21.078Z,54.80
2022-11-13T10:25:51.369Z,49.50
2022-11-13T10:31:12.791Z,52.60
2022-11-13T10:33:40.862Z,50.20
2022-11-13T10:36:16.667Z,47.50
2022-11-13T10:38:50.352Z,40.20
2022-11-13T10:41:20.439Z,43.20
2022-11-13T10:43:51.065Z,29.20
2022-11-13T10:46:21.959Z,37.10
2022-11-13T10:48:50.860Z,44.90
2022-11-13T10:51:35.383Z,48.50
2022-11-13T10:54:21.905Z,49.70
2022-11-13T10:56:59.456Z,41.90
2022-11-13T10:59:37.987Z,48.40
2022-11-13T11:02:17.153Z,44.20
2022-11-13T11:04:45.277Z,45.20
2022-11-13T11:07:20.990Z,34.60
2022-11-13T11:09:51.303Z,27.60
2022-11-13T11:12:30.338Z,37.70
2022-11-13T11:14:59.169Z,34.30
2022-11-13T11:17:49.624Z,32.70
2022-11-13T11:20:39.309Z,32.50
2022-11-13T11:23:28.357Z,33.80
2022-11-13T11:26:00.696Z,35.00
2022-11-13T11:28:45.091Z,30.30
2022-11-13T11:31:40.086Z,29.30
2022-11-13T11:34:17.328Z,27.30
2022-11-13T11:37:23.294Z,26.80
2022-11-13T11:40:14.389Z,24.10
2022-11-13T11:42:47.370Z,20.90
2022-11-13T11:45:24.106Z,25.20
2022-11-13T11:47:53.583Z,23.30
2022-11-13T11:50:46.340Z,24.40
2022-11-13T11:53:36.701Z,23.20
2022-11-13T11:56:27.899Z,23.60
2022-11-13T11:59:01.894Z,23.50
2022-11-13T12:01:48.262Z,30.70
2022-11-13T12:04:41.169Z,28.40
2022-11-13T12:07:31.177Z,31.90
2022-11-13T12:10:18.816Z,32.10
2022-11-13T12:12:46.588Z,31.70
2022-11-13T12:15:28.834Z,31.50
2022-11-13T12:20:43.852Z,28.70
2022-11-13T12:23:33.488Z,27.50
2022-11-13T12:26:26.833Z,28.80
2022-11-13T12:29:16.180Z,29.40
2022-11-13T12:32:19.272Z,27.50
2022-11-13T12:35:08.450Z,29.10
2022-11-13T12:37:43.202Z,28.70
2022-11-13T12:40:27.887Z,29.20
2022-11-13T12:43:13.935Z,28.60
2022-11-13T12:45:52.387Z,36.00
2022-11-13T12:48:20.092Z,13.20
2022-11-13T12:51:04.099Z,32.50
2022-11-13T12:54:01.038Z,33.30
2022-11-13T12:56:28.778Z,31.80
2022-11-13T13:01:57.201Z,30.90
2022-11-13T13:04:49.965Z,28.30
2022-11-13T13:07:36.468Z,35.10
2022-11-13T13:10:11.664Z,35.10
2022-11-13T13:12:39.363Z,34.70
2022-11-13T13:15:07.076Z,33.60
2022-11-13T13:17:34.876Z,37.90
2022-11-13T13:20:20.810Z,34.40
2022-11-13T13:22:57.310Z,31.80
2022-11-13T13:25:31.582Z,32.50
2022-11-13T13:28:21.619Z,36.10
2022-11-13T13:31:17.772Z,31.70
2022-11-13T13:34:02.764Z,36.80
2022-11-13T13:36:42.806Z,41.20
2022-11-13T13:39:22.816Z,44.60
2022-11-13T13:42:05.869Z,50.70
2022-11-13T13:44:41.516Z,54.80
2022-11-13T13:47:24.687Z,53.50
2022-11-13T13:49:53.380Z,54.70
2022-11-13T13:52:29.957Z,55.20
2022-11-13T13:55:00.714Z,53.20
2022-11-13T13:57:30.467Z,53.80
2022-11-13T13:59:58.639Z,58.60
2022-11-13T14:02:26.518Z,57.30
2022-11-13T14:04:55.128Z,56.10
2022-11-13T14:07:28.998Z,56.30
2022-11-13T14:10:09.421Z,62.20
2022-11-13T14:12:43.075Z,53.00
2022-11-13T14:15:30.888Z,52.30
2022-11-13T14:18:15.258Z,54.90
2022-11-13T14:20:53.514Z,51.90
2022-11-13T14:23:41.879Z,54.00
2022-11-13T14:26:12.121Z,56.20
2022-11-13T14:29:08.945Z,54.00
2022-11-13T14:31:37.124Z,51.80
2022-11-13T14:34:18.009Z,53.50
2022-11-13T14:36:47.306Z,53.60
2022-11-13T14:39:27.775Z,51.40
2022-11-13T14:41:59.949Z,55.60
2022-11-13T14:44:35.269Z,51.10
2022-11-13T14:47:37.855Z,55.90
2022-11-13T14:50:26.354Z,56.20
2022-11-13T14:53:01.756Z,60.80
2022-11-13T14:55:32.855Z,62.30
2022-11-13T14:58:00.593Z,58.10
2022-11-13T15:00:34.665Z,64.10
2022-11-13T15:03:05.044Z,59.70
2022-11-13T15:05:33.186Z,65.40
2022-11-13T15:08:00.973Z,71.10
2022-11-13T15:10:30.010Z,60.20
2022-11-13T15:12:57.793Z,72.20
2022-11-13T15:15:30.535Z,114.20
2022-11-13T15:17:58.576Z,85.50
2022-11-13T15:20:28.127Z,98.50
2022-11-13T15:22:58.811Z,64.50
2022-11-13T15:25:27.081Z,70.30
2022-11-13T15:27:54.896Z,70.10
2022-11-13T15:30:22.865Z,127.90
2022-11-13T15:32:54.135Z,82.20
2022-11-13T15:35:22.101Z,98.30
2022-11-13T15:37:50.102Z,95.90
2022-11-13T15:40:18.109Z,100.80
2022-11-13T15:42:46.531Z,78.60
2022-11-13T15:45:16.299Z,87.90
2022-11-13T15:47:44.197Z,94.00
2022-11-13T15:50:14.764Z,81.10
2022-11-13T15:52:50.039Z,80.20
2022-11-13T15:55:31.219Z,72.40
2022-11-13T15:58:03.483Z,73.20
2022-11-13T16:00:32.703Z,87.30
2022-11-13T16:03:00.565Z,97.30
2022-11-13T16:05:29.546Z,96.30
2022-11-13T16:07:57.779Z,86.80
2022-11-13T16:10:25.560Z,82.40
2022-11-13T16:12:54.117Z,83.80
2022-11-13T16:15:22.162Z,79.50
2022-11-13T16:17:54.620Z,75.40
2022-11-13T16:20:22.520Z,78.00
2022-11-13T16:22:50.591Z,88.90
2022-11-13T16:25:21.679Z,89.70
2022-11-13T16:27:49.558Z,89.50
2022-11-13T16:30:20.347Z,82.20
2022-11-13T16:32:48.462Z,86.30
2022-11-13T16:35:18.250Z,95.70
2022-11-13T16:37:46.222Z,91.10
2022-11-13T16:40:26.256Z,87.60
2022-11-13T16:42:54.382Z,98.00
2022-11-13T16:45:22.492Z,105.30
2022-11-13T16:47:53.053Z,114.30
2022-11-13T16:50:24.809Z,105.90
2022-11-13T16:52:52.849Z,100.70
2022-11-13T16:55:20.717Z,98.30
2022-11-13T16:57:48.768Z,104.30
2022-11-13T17:00:19.343Z,100.90
2022-11-13T17:02:50.064Z,115.80
2022-11-13T17:07:47.196Z,123.70
2022-11-13T17:10:30.737Z,125.30
2022-11-13T17:13:00.157Z,112.20
2022-11-13T17:15:28.331Z,128.60
2022-11-13T17:17:59.607Z,122.90
2022-11-13T17:20:28.318Z,126.10
2022-11-13T17:22:56.200Z,134.40
2022-11-13T17:25:26.710Z,122.40
2022-11-13T17:30:22.872Z,108.10
2022-11-13T17:32:50.712Z,100.50
2022-11-13T17:35:18.540Z,93.70
2022-11-13T17:37:46.378Z,92.40
2022-11-13T17:40:14.169Z,93.30
2022-11-13T17:42:42.055Z,89.20
2022-11-13T17:45:10.366Z,89.50
2022-11-13T17:47:38.656Z,81.70
2022-11-13T17:50:07.815Z,85.30
2022-11-13T17:52:35.876Z,78.50
2022-11-13T17:55:06.401Z,88.10
2022-11-13T17:57:34.442Z,88.70
2022-11-13T18:00:02.744Z,71.90
2022-11-13T18:02:31.854Z,66.40
2022-11-13T18:05:01.576Z,73.70
2022-11-13T18:07:30.710Z,66.40
2022-11-13T18:10:11.427Z,66.60
2022-11-13T18:12:40.592Z,76.20
2022-11-13T18:15:11.308Z,79.20
2022-11-13T18:17:40.167Z,83.00
2022-11-13T18:20:08.548Z,78.20
2022-11-13T18:22:36.942Z,77.00
2022-11-13T18:25:07.195Z,69.00
2022-11-13T18:30:05.275Z,35.40
2022-11-13T18:32:33.522Z,76.50
2022-11-13T18:35:01.368Z,78.60
2022-11-13T18:37:30.644Z,79.90
2022-11-13T18:39:59.447Z,81.80
2022-11-13T18:42:28.511Z,77.30
2022-11-13T18:44:56.359Z,70.30
2022-11-13T18:47:24.075Z,59.70
2022-11-13T18:49:51.993Z,74.50
2022-11-13T18:52:19.908Z,68.60
2022-11-13T18:54:47.901Z,67.00
2022-11-13T18:57:16.408Z,70.00
2022-11-13T18:59:44.450Z,69.00
2022-11-13T19:02:13.491Z,65.30
2022-11-13T19:04:42.176Z,66.80
2022-11-13T19:07:12.414Z,65.10
2022-11-13T19:09:45.179Z,57.50
2022-11-13T19:12:13.258Z,63.60
2022-11-13T19:14:41.791Z,53.90
2022-11-13T19:17:10.200Z,50.90
2022-11-13T19:19:38.644Z,54.60
2022-11-13T19:22:07.615Z,54.80
2022-11-13T19:24:35.749Z,51.70
2022-11-13T19:27:03.747Z,62.00
2022-11-13T19:29:33.174Z,67.00
2022-11-13T19:32:01.104Z,65.70
2022-11-13T19:34:28.851Z,64.40
2022-11-13T19:36:56.628Z,54.00
2022-11-13T19:39:24.995Z,51.90
2022-11-13T19:41:52.764Z,59.90
2022-11-13T19:44:20.534Z,60.90
2022-11-13T19:46:50.705Z,62.10
2022-11-13T19:49:18.531Z,66.50
2022-11-13T19:51:46.300Z,71.00
2022-11-13T19:54:16.677Z,66.40
2022-11-13T19:56:44.528Z,69.10
2022-11-13T19:59:12.489Z,69.40
2022-11-13T20:01:41.998Z,68.70
2022-11-13T20:04:12.781Z,65.10
2022-11-13T20:06:40.662Z,69.70
2022-11-13T20:09:08.515Z,64.20
2022-11-13T20:11:36.668Z,63.00
2022-11-13T20:14:04.617Z,64.40
2022-11-13T20:16:32.388Z,70.00
2022-11-13T20:19:00.248Z,63.60
2022-11-13T20:21:33.436Z,63.00
2022-11-13T20:24:01.407Z,63.40
2022-11-13T20:26:29.974Z,64.00
2022-11-13T20:28:57.773Z,79.30
2022-11-13T20:31:27.777Z,63.60
2022-11-13T20:33:56.953Z,56.20
2022-11-13T20:36:24.896Z,61.30
2022-11-13T20:38:54.964Z,61.40
2022-11-13T20:41:26.678Z,64.90
2022-11-13T20:43:56.380Z,56.60
2022-11-13T20:46:24.144Z,54.50
2022-11-13T20:48:52.059Z,56.40
2022-11-13T20:51:22.880Z,54.70
2022-11-13T20:53:51.176Z,58.30
2022-11-13T20:56:20.782Z,72.60
2022-11-13T20:58:48.699Z,66.70
2022-11-13T21:01:25.721Z,64.70
2022-11-13T21:03:53.647Z,63.30
2022-11-13T21:06:25.045Z,60.00
2022-11-13T21:08:56.522Z,60.70
2022-11-13T21:11:29.279Z,58.30
2022-11-13T21:13:58.379Z,59.90
2022-11-13T21:16:28.250Z,54.50
2022-11-13T21:18:57.660Z,66.60
2022-11-13T21:21:28.581Z,54.70
2022-11-13T21:23:57.847Z,62.30
2022-11-13T21:26:26.067Z,59.20
2022-11-13T21:28:56.392Z,56.50
2022-11-13T21:31:24.307Z,55.30
2022-11-13T21:33:52.840Z,54.20
2022-11-13T21:36:26.635Z,55.50
2022-11-13T21:38:55.920Z,56.40
2022-11-13T21:41:27.346Z,57.00
2022-11-13T21:43:55.051Z,52.50
2022-11-13T21:46:25.226Z,51.80
2022-11-13T21:49:04.614Z,53.50
2022-11-13T21:51:34.376Z,50.40
2022-11-13T21:54:02.712Z,48.60
2022-11-13T21:56:33.076Z,56.40
2022-11-13T21:59:01.008Z,60.80
2022-11-13T22:01:36.512Z,57.80
2022-11-13T22:04:06.799Z,48.80
2022-11-13T22:06:39.754Z,61.20
2022-11-13T22:09:12.442Z,61.50
2022-11-13T22:11:40.449Z,57.30
2022-11-13T22:14:09.032Z,54.20
2022-11-13T22:16:39.610Z,54.00
2022-11-13T22:19:13.759Z,45.50
2022-11-13T22:21:42.398Z,28.10
2022-11-13T22:24:11.267Z,49.60
2022-11-13T22:26:42.009Z,46.80
2022-11-13T22:31:38.396Z,53.40
2022-11-13T22:34:06.346Z,57.80
2022-11-13T22:36:36.584Z,56.60
2022-11-13T22:39:06.165Z,59.50
2022-11-13T22:41:35.824Z,37.20
2022-11-13T22:44:10.678Z,25.90
2022-11-13T22:46:38.604Z,38.00
2022-11-13T22:49:07.160Z,45.50
2022-11-13T22:51:38.460Z,50.90
2022-11-13T22:54:08.968Z,42.90
2022-11-13T22:56:38.525Z,46.70
2022-11-13T22:59:09.552Z,46.00
2022-11-13T23:01:39.051Z,44.70
2022-11-13T23:04:09.900Z,43.10
2022-11-13T23:06:37.774Z,45.20
2022-11-13T23:09:06.355Z,43.80
2022-11-13T23:11:39.710Z,44.90
2022-11-13T23:14:11.306Z,47.10
2022-11-13T23:16:40.056Z,45.10
2022-11-13T23:19:07.904Z,43.10
2022-11-13T23:21:35.987Z,47.90
2022-11-13T23:24:03.956Z,43.50
2022-11-13T23:26:31.686Z,43.50
2022-11-13T23:28:59.508Z,50.90
2022-11-13T23:31:27.316Z,52.90
2022-11-13T23:33:55.122Z,47.80
2022-11-13T23:36:23.542Z,47.60
2022-11-13T23:38:51.287Z,46.70
2022-11-13T23:41:19.100Z,46.70
2022-11-13T23:44:07.704Z,45.30
2022-11-13T23:46:34.590Z,45.90
2022-11-13T23:49:02.383Z,49.70
2022-11-13T23:51:30.189Z,51.00
2022-11-13T23:53:58.079Z,42.60
2022-11-13T23:56:25.849Z,45.40
2022-11-13T23:58:53.702Z,43.60
